Time;durP1;ratioP1;P1;durP2;ratioP2;P2;SDS_P1;SDS_P2;PMS_P1;PMS_P2;Temp;Humidity;BMP_temperature;BMP_pressure;BME280_temperature;BME280_humidity;BME280_pressure;Samples;Min_cycle;Max_cycle;Signal;HPM_P1;HPM_P2
2022/07/11 00:02:07;;;;;;;1.70;1.60;;;;;;;16.02;70.01;102338.22;5013001;28;20029;-84
2022/07/11 00:04:33;;;;;;;1.70;1.60;;;;;;;16.00;70.20;102337.38;5013496;28;20029;-85
2022/07/11 00:06:59;;;;;;;1.45;1.35;;;;;;;16.00;70.12;102334.75;5012045;28;20100;-85
2022/07/11 00:09:25;;;;;;;1.60;1.50;;;;;;;15.99;70.31;102338.25;5013260;28;20449;-85
2022/07/11 00:11:50;;;;;;;2.00;1.80;;;;;;;15.98;70.16;102336.56;5012439;28;20032;-85
2022/07/11 00:14:17;;;;;;;1.93;1.70;;;;;;;15.97;70.34;102332.22;5012609;28;20025;-85
2022/07/11 00:16:42;;;;;;;1.85;1.70;;;;;;;15.95;70.46;102332.22;5012918;28;20038;-85
2022/07/11 00:19:07;;;;;;;1.70;1.60;;;;;;;15.94;70.62;102333.09;5012277;28;20753;-84
2022/07/11 00:21:35;;;;;;;2.37;1.80;;;;;;;15.91;70.40;102320.06;5012334;28;20034;-85
2022/07/11 00:24:00;;;;;;;2.53;1.85;;;;;;;15.87;70.79;102320.97;5012666;28;20100;-85
2022/07/11 00:26:25;;;;;;;1.90;1.80;;;;;;;15.82;70.86;102321.03;5012989;28;20039;-85
2022/07/11 00:28:51;;;;;;;1.90;1.80;;;;;;;15.81;70.83;102329.75;5012000;28;20103;-85
2022/07/11 00:31:16;;;;;;;2.13;1.93;;;;;;;15.80;70.97;102316.69;5012410;28;20038;-85
2022/07/11 00:33:42;;;;;;;1.83;1.73;;;;;;;15.77;70.97;102319.34;5013121;28;20109;-85
2022/07/11 00:36:08;;;;;;;2.28;1.77;;;;;;;15.73;70.69;102314.16;5011871;28;20030;-85
2022/07/11 00:38:33;;;;;;;1.80;1.70;;;;;;;15.70;71.16;102316.84;5012713;28;20113;-85
2022/07/11 00:40:58;;;;;;;1.70;1.60;;;;;;;15.65;71.45;102312.53;5012499;28;20117;-84
2022/07/11 00:43:35;;;;;;;1.80;1.70;;;;;;;15.57;71.34;102312.63;5012179;28;20030;-85
2022/07/11 00:46:00;;;;;;;;;;;;;;;15.52;71.65;102312.69;5013361;28;20034;-85
2022/07/11 00:48:25;;;;;;;2.03;1.83;;;;;;;15.51;71.81;102313.56;5015847;28;20034;-85
2022/07/11 00:50:51;;;;;;;1.90;1.80;;;;;;;15.50;71.89;102313.56;5016637;28;20037;-84
2022/07/11 00:53:18;;;;;;;1.90;1.80;;;;;;;15.48;71.76;102321.47;5016372;28;20404;-85
2022/07/11 00:55:44;;;;;;;2.78;1.90;;;;;;;15.47;71.84;102305.78;5015732;28;20458;-84
2022/07/11 00:58:10;;;;;;;2.00;1.80;;;;;;;15.46;71.77;102309.28;5016424;28;20049;-85
2022/07/11 01:00:35;;;;;;;1.80;1.70;;;;;;;15.44;72.00;102306.66;5016949;28;20116;-85
2022/07/11 01:03:00;;;;;;;2.20;2.00;;;;;;;15.43;71.94;102307.56;5015882;28;20026;-84
2022/07/11 01:05:27;;;;;;;2.50;1.90;;;;;;;15.40;71.93;102308.47;5015834;28;20108;-85
2022/07/11 01:07:52;;;;;;;3.17;1.92;;;;;;;15.36;72.17;102311.13;5016072;28;20024;-85
2022/07/11 01:10:18;;;;;;;2.10;1.83;;;;;;;15.32;72.43;102304.19;5016024;28;20025;-85
2022/07/11 01:12:43;;;;;;;1.77;1.67;;;;;;;15.27;72.68;102312.09;5016169;28;20428;-84
2022/07/11 01:15:10;;;;;;;2.00;1.90;;;;;;;15.25;72.67;102306.91;5015795;28;20042;-85
2022/07/11 01:17:35;;;;;;;1.98;1.80;;;;;;;15.23;72.78;102305.19;5015278;28;20022;-84
2022/07/11 01:20:00;;;;;;;2.57;2.00;;;;;;;15.21;72.66;102299.97;5015862;28;20026;-85
2022/07/11 01:22:28;;;;;;;3.00;1.80;;;;;;;15.18;72.80;102301.75;5016054;28;20033;-85
2022/07/11 01:24:54;;;;;;;2.60;2.08;;;;;;;15.14;72.87;102301.78;5015248;28;20465;-84
2022/07/11 01:27:19;;;;;;;1.70;1.60;;;;;;;15.12;73.06;102306.19;5016257;28;20053;-85
2022/07/11 01:29:45;;;;;;;1.73;1.50;;;;;;;15.09;73.06;102311.44;5015798;28;20030;-84
2022/07/11 01:32:10;;;;;;;1.93;1.83;;;;;;;15.06;73.01;102303.63;5015026;28;20033;-84
2022/07/11 01:34:35;;;;;;;2.50;2.00;;;;;;;15.05;73.36;102303.66;5015988;28;20026;-85
2022/07/11 01:37:01;;;;;;;1.63;1.53;;;;;;;15.01;73.46;102300.22;5015381;28;20359;-84
2022/07/11 01:39:29;;;;;;;2.00;1.73;;;;;;;14.97;73.37;102309.81;5015227;28;20022;-85
2022/07/11 01:41:57;;;;;;;1.70;1.60;;;;;;;14.93;73.57;102305.50;5015220;28;20057;-84
2022/07/11 01:44:22;;;;;;;2.20;1.80;;;;;;;14.92;73.64;102309.00;5015315;28;20458;-84
2022/07/11 01:46:48;;;;;;;1.97;1.70;;;;;;;14.90;73.64;102307.28;5015671;28;20037;-84
2022/07/11 01:49:13;;;;;;;2.07;1.87;;;;;;;14.90;73.88;102310.75;5015191;28;20547;-85
2022/07/11 01:51:38;;;;;;;2.10;1.90;;;;;;;14.90;73.70;102307.28;5014623;28;20541;-84
2022/07/11 01:54:04;;;;;;;2.43;1.90;;;;;;;14.91;73.89;102315.09;5014996;28;20044;-84
2022/07/11 01:56:32;;;;;;;2.23;1.97;;;;;;;14.92;73.86;102315.97;5015256;28;20046;-85
2022/07/11 01:58:58;;;;;;;1.85;1.75;;;;;;;14.91;74.41;102315.09;5013844;28;20030;-85
2022/07/11 02:01:23;;;;;;;2.60;2.07;;;;;;;14.90;73.97;102312.50;5015302;28;20493;-85
2022/07/11 02:03:48;;;;;;;2.30;2.10;;;;;;;14.92;74.09;102315.97;5015491;28;20018;-84
2022/07/11 02:06:14;;;;;;;1.87;1.77;;;;;;;14.95;74.17;102323.78;5014444;28;20581;-84
2022/07/11 02:08:39;;;;;;;2.00;1.90;;;;;;;14.94;74.31;102322.94;5015398;28;20072;-84
2022/07/11 02:11:04;;;;;;;1.80;1.70;;;;;;;14.95;74.45;102321.16;5014595;28;20029;-85
2022/07/11 02:13:29;;;;;;;2.20;1.80;;;;;;;14.96;74.41;102317.66;5014625;28;20041;-84
2022/07/11 02:15:55;;;;;;;2.00;1.80;;;;;;;14.98;74.72;102314.16;5014519;28;20401;-85
2022/07/11 02:18:21;;;;;;;2.03;1.83;;;;;;;15.01;74.74;102315.88;5015007;28;20109;-85
2022/07/11 02:20:48;;;;;;;1.80;1.70;;;;;;;15.04;74.87;102301.91;5014286;28;20432;-85
2022/07/11 02:23:14;;;;;;;2.03;1.73;;;;;;;15.05;75.01;102298.41;5015014;28;20038;-84
2022/07/11 02:25:39;;;;;;;1.67;1.57;;;;;;;15.04;74.94;102305.38;5014731;28;20072;-84
2022/07/11 02:28:08;;;;;;;1.70;1.60;;;;;;;15.07;74.80;102301.88;5014153;28;20026;-84
2022/07/11 02:30:34;;;;;;;2.22;1.80;;;;;;;15.09;75.18;102300.09;5014691;28;20115;-84
2022/07/11 02:33:00;;;;;;;2.10;1.80;;;;;;;15.12;74.88;102300.97;5014497;28;20122;-84
2022/07/11 02:35:25;;;;;;;2.00;1.80;;;;;;;15.14;74.85;102301.78;5014029;28;20296;-85
2022/07/11 02:37:51;;;;;;;1.90;1.80;;;;;;;15.17;75.25;102300.91;5014020;28;20026;-85
2022/07/11 02:40:16;;;;;;;1.70;1.60;;;;;;;15.20;75.16;102302.59;5014915;28;20101;-84
2022/07/11 02:42:41;;;;;;;1.50;1.40;;;;;;;15.22;75.48;102303.47;5013799;28;20509;-85
2022/07/11 02:45:08;;;;;;;1.87;1.63;;;;;;;15.22;74.88;102293.84;5014051;28;20065;-85
2022/07/11 02:47:34;;;;;;;1.67;1.58;;;;;;;15.24;75.41;102306.94;5014761;28;20026;-85
2022/07/11 02:49:59;;;;;;;1.70;1.60;;;;;;;15.25;75.37;102309.50;5013376;28;20030;-85
2022/07/11 02:52:24;;;;;;;1.63;1.50;;;;;;;15.27;75.53;102310.38;5014304;28;20026;-85
2022/07/11 02:54:50;;;;;;;2.00;1.60;;;;;;;15.28;75.49;102304.25;5013493;28;20034;-84
2022/07/11 02:57:15;;;;;;;2.23;1.97;;;;;;;15.27;77.01;102307.75;5014156;28;20030;-84
2022/07/11 02:59:40;;;;;;;1.70;1.60;;;;;;;15.22;76.95;102299.09;5014585;28;20025;-84
2022/07/11 03:02:06;;;;;;;1.63;1.50;;;;;;;15.24;76.24;102304.31;5013165;28;20029;-84
2022/07/11 03:04:34;;;;;;;2.47;1.70;;;;;;;15.25;76.35;102299.06;5013864;28;20018;-84
2022/07/11 03:06:59;;;;;;;1.90;1.70;;;;;;;15.26;76.26;102302.53;5014132;28;20026;-84
2022/07/11 03:09:25;;;;;;;2.00;1.37;;;;;;;15.26;76.70;102300.78;5012855;28;20030;-84
2022/07/11 03:11:50;;;;;;;1.50;1.40;;;;;;;15.26;76.30;102294.69;5013730;28;20018;-83
2022/07/11 03:14:16;;;;;;;2.60;1.80;;;;;;;15.29;76.09;102298.16;5014146;28;20529;-85
2022/07/11 03:16:42;;;;;;;1.40;1.40;;;;;;;15.30;76.22;102301.63;5013087;28;20037;-84
2022/07/11 03:19:07;;;;;;;1.60;1.50;;;;;;;15.33;76.93;102303.31;5013661;28;20026;-84
2022/07/11 03:21:32;;;;;;;1.60;1.50;;;;;;;15.33;76.30;102298.97;5014283;28;20204;-84
2022/07/11 03:23:57;;;;;;;1.50;1.40;;;;;;;15.36;76.17;102305.91;5013127;28;20022;-84
2022/07/11 03:26:22;;;;;;;1.40;1.30;;;;;;;15.36;76.48;102309.41;5013871;28;20025;-84
2022/07/11 03:28:48;;;;;;;1.70;1.60;;;;;;;15.38;76.27;102304.16;5013440;28;20394;-84
2022/07/11 03:31:21;;;;;;;1.38;1.20;;;;;;;15.40;76.43;102312.84;5110170;27;20526;-84
2022/07/11 03:33:46;;;;;;;1.50;1.40;;;;;;;15.42;76.09;102313.69;5110706;28;20035;-84
2022/07/11 03:36:12;;;;;;;1.50;1.40;;;;;;;15.43;76.47;102313.66;5110732;28;20030;-83
2022/07/11 03:38:38;;;;;;;1.50;1.40;;;;;;;15.45;76.45;102316.25;5109900;28;20043;-82
2022/07/11 03:41:04;;;;;;;1.50;1.40;;;;;;;15.46;76.59;102315.38;5110074;28;20030;-83
2022/07/11 03:43:29;;;;;;;1.35;1.30;;;;;;;15.46;76.04;102311.91;5110706;28;20034;-83
2022/07/11 03:45:55;;;;;;;1.10;1.10;;;;;;;15.47;76.28;102311.88;5109035;28;20500;-83
2022/07/11 03:48:21;;;;;;;1.58;1.48;;;;;;;15.49;76.46;102309.22;5110429;28;20028;-86
2022/07/11 03:50:47;;;;;;;1.93;1.30;;;;;;;15.49;76.91;102307.50;5107667;28;20073;-85
2022/07/11 03:53:13;;;;;;;1.40;1.30;;;;;;;15.50;76.59;102306.59;5089209;28;20032;-84
2022/07/11 03:55:38;;;;;;;1.60;1.50;;;;;;;15.51;76.83;102307.47;5090088;28;20031;-84
2022/07/11 03:58:04;;;;;;;1.60;1.50;;;;;;;15.52;76.65;102310.06;5089606;28;20046;-88
2022/07/11 04:00:29;;;;;;;1.50;1.40;;;;;;;15.54;76.57;102310.91;5090244;28;20032;-87
2022/07/11 04:02:54;;;;;;;2.23;1.97;;;;;;;15.56;76.40;102314.38;5095315;28;20024;-87
2022/07/11 04:05:19;;;;;;;1.40;1.30;;;;;;;15.57;76.96;102316.09;5109939;28;20028;-84
2022/07/11 04:07:45;;;;;;;1.20;1.20;;;;;;;15.59;76.94;102310.88;5110444;28;20485;-84
2022/07/11 04:10:10;;;;;;;1.37;1.27;;;;;;;15.59;76.53;102308.25;5109874;28;20554;-84
2022/07/11 04:12:36;;;;;;;1.40;1.30;;;;;;;15.60;76.84;102305.59;5109129;28;20016;-83
2022/07/11 04:15:02;;;;;;;1.30;1.20;;;;;;;15.62;76.94;102308.19;5105277;28;20024;-83
2022/07/11 04:17:28;;;;;;;1.48;1.38;;;;;;;15.61;77.85;102309.06;5089518;28;20423;-84
2022/07/11 04:19:54;;;;;;;1.25;1.20;;;;;;;15.61;77.29;102311.69;5088750;28;20069;-84
2022/07/11 04:22:20;;;;;;;1.45;1.30;;;;;;;15.61;77.13;102311.69;5089258;28;20100;-84
2022/07/11 04:24:45;;;;;;;1.30;1.20;;;;;;;15.63;76.93;102306.47;5089627;28;20092;-83
2022/07/11 04:27:10;;;;;;;1.50;1.40;;;;;;;15.65;78.78;102315.16;5089234;28;20285;-84
2022/07/11 04:29:35;;;;;;;1.73;1.60;;;;;;;15.62;77.97;102307.34;5095002;28;20044;-84
2022/07/11 04:32:01;;;;;;;1.53;1.43;;;;;;;15.62;77.25;102308.19;5108843;28;20028;-83
2022/07/11 04:34:26;;;;;;;2.10;1.90;;;;;;;15.63;79.53;102314.31;5109089;28;20023;-83
2022/07/11 04:36:51;;;;;;;1.50;1.40;;;;;;;15.60;78.27;102310.84;5109399;28;20031;-82
2022/07/11 04:39:16;;;;;;;1.60;1.50;;;;;;;15.61;77.60;102314.31;5109662;28;20486;-83
2022/07/11 04:41:42;;;;;;;1.23;1.17;;;;;;;15.64;78.10;102318.66;5100476;28;20024;-83
2022/07/11 04:44:07;;;;;;;1.40;1.30;;;;;;;15.64;78.62;102318.66;5095249;28;20024;-83
2022/07/11 04:46:33;;;;;;;2.33;2.13;;;;;;;15.62;80.11;102317.81;5094720;28;20750;-83
2022/07/11 04:48:58;;;;;;;2.10;1.97;;;;;;;15.62;81.10;102321.28;5098771;28;20382;-83
2022/07/11 04:51:24;;;;;;;3.33;2.20;;;;;;;15.60;81.53;102326.53;5115899;28;20451;-81
2022/07/11 04:53:50;;;;;;;4.35;2.30;;;;;;;15.59;80.30;102339.66;5106398;28;20020;-82
2022/07/11 04:56:15;;;;;;;2.25;2.00;;;;;;;15.59;79.27;102335.28;5094790;28;20032;-82
2022/07/11 04:58:40;;;;;;;2.50;2.00;;;;;;;15.63;81.85;102332.63;5113147;28;20020;-83
2022/07/11 05:01:06;;;;;;;2.27;2.07;;;;;;;15.63;79.68;102332.63;5115661;28;20027;-83
2022/07/11 05:03:34;;;;;;;2.33;1.67;;;;;;;15.66;79.17;102329.94;5115009;28;20026;-82
2022/07/11 05:05:59;;;;;;;1.50;1.40;;;;;;;15.70;78.93;102336.88;5115695;28;20030;-83
2022/07/11 05:08:25;;;;;;;1.40;1.30;;;;;;;15.71;78.71;102343.84;5099276;28;20028;-82
2022/07/11 05:10:50;;;;;;;1.30;1.30;;;;;;;15.73;78.68;102339.47;5095065;28;20391;-82
2022/07/11 05:13:15;;;;;;;2.00;1.90;;;;;;;15.75;79.80;102345.56;5095400;28;20020;-82
2022/07/11 05:15:40;;;;;;;1.50;1.40;;;;;;;15.75;79.57;102343.78;5094296;28;20438;-82
2022/07/11 05:18:06;;;;;;;2.10;1.43;;;;;;;15.76;79.16;102339.44;5097786;28;20020;-82
2022/07/11 05:20:32;;;;;;;1.50;1.40;;;;;;;15.80;79.76;102342.88;5113273;28;20024;-83
2022/07/11 05:22:59;;;;;;;1.20;1.10;;;;;;;15.82;80.31;102341.97;5114392;28;20031;-84
2022/07/11 05:25:25;;;;;;;1.92;1.45;;;;;;;15.82;81.28;102336.72;5115126;28;20023;-83
2022/07/11 05:27:50;;;;;;;1.70;1.60;;;;;;;15.82;79.65;102344.56;5115233;28;20027;-83
2022/07/11 05:30:16;;;;;;;1.90;1.80;;;;;;;15.85;81.92;102351.56;5114255;28;20039;-83
2022/07/11 05:32:41;;;;;;;1.60;1.50;;;;;;;15.84;79.76;102349.78;5098571;28;20509;-83
2022/07/11 05:35:07;;;;;;;1.63;1.50;;;;;;;15.87;79.22;102349.78;5094664;28;20396;-83
2022/07/11 05:37:32;;;;;;;1.20;1.20;;;;;;;15.91;78.78;102356.72;5094028;28;20380;-84
2022/07/11 05:39:58;;;;;;;1.30;1.20;;;;;;;15.92;78.85;102342.75;5094443;28;20035;-83
2022/07/11 05:42:23;;;;;;;1.07;1.07;;;;;;;15.99;80.05;102354.84;5094657;28;20154;-84
2022/07/11 05:44:49;;;;;;;1.50;1.40;;;;;;;15.99;80.48;102353.97;5112350;28;20024;-83
2022/07/11 05:47:15;;;;;;;1.23;1.20;;;;;;;15.99;79.83;102346.13;5115354;28;20024;-83
2022/07/11 05:49:41;;;;;;;1.20;1.20;;;;;;;16.02;79.90;102356.56;5115074;28;20031;-81
2022/07/11 05:52:06;;;;;;;1.13;1.13;;;;;;;16.02;79.94;102356.56;5113668;28;20034;-82
2022/07/11 05:54:31;;;;;;;0.90;0.90;;;;;;;16.03;79.92;102363.53;5112770;28;20118;-81
2022/07/11 05:56:57;;;;;;;0.80;0.80;;;;;;;16.04;79.78;102358.25;5094053;28;20089;-82
2022/07/11 05:59:22;;;;;;;0.80;0.80;;;;;;;16.05;81.55;102362.59;5093516;28;20035;-82
2022/07/11 06:01:47;;;;;;;1.03;0.93;;;;;;;16.07;80.98;102365.22;5093927;28;20032;-82
2022/07/11 06:04:13;;;;;;;0.90;0.90;;;;;;;16.08;80.08;102363.47;5094312;28;20036;-83
2022/07/11 06:06:38;;;;;;;2.37;1.60;;;;;;;16.06;81.39;102366.97;5093663;28;20036;-82
2022/07/11 06:09:04;;;;;;;2.07;1.67;;;;;;;16.07;81.03;102367.84;5114112;28;20070;-83
2022/07/11 06:11:29;;;;;;;2.40;2.00;;;;;;;16.06;83.45;102371.34;5114644;28;20031;-82
2022/07/11 06:13:55;;;;;;;2.10;1.70;;;;;;;16.06;80.81;102376.59;5113713;28;20059;-82
2022/07/11 06:16:20;;;;;;;1.30;1.20;;;;;;;16.09;80.59;102381.78;5114272;28;20023;-82
2022/07/11 06:18:46;;;;;;;2.40;1.93;;;;;;;16.10;83.12;102378.25;5108263;28;20028;-82
2022/07/11 06:21:11;;;;;;;2.87;2.10;;;;;;;16.08;81.64;102380.06;5093796;28;20035;-82
2022/07/11 06:23:37;;;;;;;2.10;1.90;;;;;;;16.06;81.74;102380.06;5094015;28;20069;-82
2022/07/11 06:26:03;;;;;;;1.80;1.70;;;;;;;16.08;82.27;102380.06;5092711;28;20028;-82
2022/07/11 06:28:29;;;;;;;1.70;1.60;;;;;;;16.06;81.53;102376.59;5094763;28;20028;-82
2022/07/11 06:30:54;;;;;;;2.33;2.07;;;;;;;16.06;82.65;102376.59;5113567;28;20380;-82
2022/07/11 06:33:20;;;;;;;1.87;1.77;;;;;;;16.06;81.60;102380.06;5113524;28;20024;-82
2022/07/11 06:35:46;;;;;;;2.17;1.90;;;;;;;16.09;83.08;102386.16;5113837;28;20106;-82
2022/07/11 06:38:13;;;;;;;3.92;2.53;;;;;;;16.04;82.65;102381.81;5100447;28;20539;-82
2022/07/11 06:40:40;;;;;;;4.35;2.83;;;;;;;16.01;84.38;102383.63;5092916;28;20024;-82
2022/07/11 06:43:06;;;;;;;4.10;2.78;;;;;;;15.98;84.52;102381.06;5093329;28;20081;-82
2022/07/11 06:45:31;;;;;;;3.73;2.63;;;;;;;15.96;83.83;102381.06;5093596;28;20455;-87
2022/07/11 06:47:57;;;;;;;2.97;2.27;;;;;;;15.96;84.23;102378.44;5103140;28;20479;-85
2022/07/11 06:50:22;;;;;;;2.90;2.40;;;;;;;16.00;82.87;102380.16;5114230;28;20471;-85
2022/07/11 06:52:47;;;;;;;2.60;2.20;;;;;;;16.08;83.40;102372.19;5113944;28;20035;-86
2022/07/11 06:55:13;;;;;;;1.93;1.80;;;;;;;16.15;82.39;102373.84;5112594;28;20024;-81
2022/07/11 06:57:38;;;;;;;1.50;1.50;;;;;;;16.27;81.74;102370.16;5113721;28;20027;-87
2022/07/11 07:00:07;;;;;;;1.20;1.20;;;;;;;16.43;81.55;102372.56;5101219;28;20028;-84
2022/07/11 07:02:32;;;;;;;1.15;1.15;;;;;;;16.61;81.25;102371.41;5092679;28;20444;-84
2022/07/11 07:05:00;;;;;;;1.20;1.20;;;;;;;16.75;81.62;102369.44;5092671;28;20055;-83
2022/07/11 07:07:26;;;;;;;1.20;1.20;;;;;;;16.87;80.92;102362.25;5094364;28;20118;-83
2022/07/11 07:09:52;;;;;;;0.80;0.80;;;;;;;16.97;80.34;102366.47;5092263;28;20516;-83
2022/07/11 07:12:17;;;;;;;;;;;;;;;17.11;80.32;102366.19;5106002;28;20023;-83
2022/07/11 07:14:43;;;;;;;1.70;1.60;;;;;;;17.16;79.61;102367.00;5113030;28;20367;-84
2022/07/11 07:17:08;;;;;;;1.70;1.60;;;;;;;17.26;79.91;102365.03;5112524;28;20207;-83
2022/07/11 07:19:33;;;;;;;1.73;1.63;;;;;;;17.33;79.36;102365.78;5113165;28;20084;-83
2022/07/11 07:21:59;;;;;;;1.27;1.20;;;;;;;17.43;78.87;102362.97;5110534;28;20027;-84
2022/07/11 07:24:24;;;;;;;2.37;1.67;;;;;;;17.53;78.50;102358.38;5100946;28;20085;-83
2022/07/11 07:26:49;;;;;;;2.33;1.60;;;;;;;17.57;79.20;102364.44;5092574;28;20069;-83
2022/07/11 07:29:14;;;;;;;1.27;1.27;;;;;;;17.66;78.49;102351.13;5091922;28;20071;-83
2022/07/11 07:31:40;;;;;;;1.13;1.13;;;;;;;17.77;78.16;102353.50;5092673;28;20055;-83
2022/07/11 07:34:05;;;;;;;1.03;1.03;;;;;;;17.87;77.56;102357.66;5092280;28;20368;-83
2022/07/11 07:36:30;;;;;;;1.10;1.07;;;;;;;17.97;77.85;102361.00;5103016;28;20032;-83
2022/07/11 07:38:55;;;;;;;0.80;0.80;;;;;;;18.02;77.44;102359.13;5112700;28;20031;-83
2022/07/11 07:41:21;;;;;;;0.77;0.77;;;;;;;18.05;77.04;102364.31;5113067;28;20027;-83
2022/07/11 07:43:48;;;;;;;0.60;0.60;;;;;;;18.08;76.92;102362.53;5112104;28;20425;-83
2022/07/11 07:46:14;;;;;;;0.80;0.80;;;;;;;18.11;77.06;102362.47;5113116;28;20048;-83
2022/07/11 07:48:39;;;;;;;1.13;1.03;;;;;;;18.06;76.31;102363.41;5101441;28;20444;-83
2022/07/11 07:51:05;;;;;;;0.90;0.90;;;;;;;18.05;76.60;102366.94;5091706;28;20024;-83
2022/07/11 07:53:31;;;;;;;1.30;1.20;;;;;;;18.09;76.32;102370.34;5092514;28;20021;-83
2022/07/11 07:55:56;;;;;;;0.90;0.90;;;;;;;18.12;76.39;102370.28;5092476;28;20104;-83
2022/07/11 07:58:21;;;;;;;1.03;1.03;;;;;;;18.13;76.06;102371.16;5091808;28;20138;-83
2022/07/11 08:03:31;;;;;;;2.13;1.83;;;;;;;17.89;75.79;102378.66;5113018;28;20042;-83
2022/07/11 08:05:56;;;;;;;1.70;1.60;;;;;;;17.81;76.37;102378.81;5112045;28;20102;-83
2022/07/11 08:08:22;;;;;;;2.17;1.53;;;;;;;17.82;76.64;102377.94;5104920;28;20032;-83
2022/07/11 08:10:47;;;;;;;1.40;1.30;;;;;;;17.88;76.30;102379.56;5092085;28;20054;-83
2022/07/11 08:13:12;;;;;;;1.20;1.20;;;;;;;17.95;76.36;102375.88;5107451;28;20028;-84
2022/07/11 08:15:38;;;;;;;1.50;1.40;;;;;;;17.96;76.17;102380.25;5112885;28;20030;-83
2022/07/11 08:18:03;;;;;;;1.67;1.57;;;;;;;17.96;75.56;102380.25;5116218;28;20387;-83
2022/07/11 08:20:29;;;;;;;1.50;1.40;;;;;;;18.00;76.34;102391.56;5115690;28;20024;-83
2022/07/11 08:22:59;;;;;;;1.60;1.50;;;;;;;18.01;75.88;102383.66;5116410;28;20119;-83
2022/07/11 08:25:25;;;;;;;2.05;1.95;;;;;;;17.91;74.95;102385.59;5099246;28;20039;-84
2022/07/11 08:27:50;;;;;;;4.07;2.47;;;;;;;17.73;76.06;102388.63;5095893;28;20024;-84
2022/07/11 08:30:15;;;;;;;2.73;2.40;;;;;;;17.68;75.88;102383.44;5095733;28;20047;-84
2022/07/11 08:32:40;;;;;;;2.30;2.10;;;;;;;17.70;76.09;102384.28;5096392;28;20028;-84
2022/07/11 08:35:07;;;;;;;2.83;1.90;;;;;;;17.71;76.12;102385.16;5115475;28;20118;-84
2022/07/11 08:37:32;;;;;;;3.50;2.38;;;;;;;17.67;76.56;102389.63;5099480;28;20330;-84
2022/07/11 08:39:57;;;;;;;2.50;2.30;;;;;;;17.66;76.22;102397.50;5094648;28;20451;-84
2022/07/11 08:42:27;;;;;;;2.57;2.10;;;;;;;17.70;76.21;102388.69;5095624;28;20035;-84
2022/07/11 08:44:55;;;;;;;1.92;1.83;;;;;;;17.81;76.19;102381.44;5095896;28;20031;-84
2022/07/11 08:47:21;;;;;;;1.70;1.60;;;;;;;17.96;76.33;102390.75;5076770;28;20111;-81
2022/07/11 08:49:46;;;;;;;1.50;1.40;;;;;;;18.09;75.75;102385.25;5111782;28;20130;-84
2022/07/11 08:52:14;;;;;;;1.30;1.30;;;;;;;18.20;75.22;102380.63;5116145;28;20028;-84
2022/07/11 08:54:40;;;;;;;1.67;1.50;;;;;;;18.30;75.55;102384.78;5115467;28;20031;-84
2022/07/11 08:57:05;;;;;;;1.30;1.20;;;;;;;18.38;75.31;102384.59;5115805;28;20031;-84
2022/07/11 08:59:33;;;;;;;2.07;1.90;;;;;;;18.47;74.72;102389.63;5115878;28;20441;-85
2022/07/11 09:02:02;;;;;;;2.55;2.30;;;;;;;18.50;74.52;102383.44;5098129;28;20070;-84
2022/07/11 09:04:29;;;;;;;4.93;2.50;;;;;;;18.58;74.65;102383.25;5093079;28;20020;-85
2022/07/11 09:06:55;;;;;;;2.72;2.22;;;;;;;18.66;74.58;102376.91;5101329;28;20024;-83
2022/07/11 09:09:20;;;;;;;2.10;2.00;;;;;;;18.78;74.31;102380.97;5095407;28;20465;-83
2022/07/11 09:11:53;;;;;;;2.90;2.30;;;;;;;18.87;73.89;102374.63;5109056;28;20494;-82
2022/07/11 09:14:27;;;;;;;4.00;2.63;;;;;;;18.91;73.81;102370.16;5113999;28;20027;-83
2022/07/11 09:16:54;;;;;;;2.45;2.25;;;;;;;18.98;73.74;102371.72;5114296;28;20102;-83
2022/07/11 09:19:22;;;;;;;2.13;1.90;;;;;;;19.07;73.88;102378.53;5112139;28;20023;-83
2022/07/11 09:28:04;;;;;;;2.10;1.80;;;;;;;19.29;73.01;102371.78;5115529;28;20030;-85
2022/07/11 09:30:35;;;;;;;2.90;2.20;;;;;;;19.34;73.16;102374.28;5114594;28;20050;-85
2022/07/11 09:33:04;;;;;;;2.10;2.00;;;;;;;19.43;72.69;102374.00;5114914;28;20034;-87
2022/07/11 09:35:37;;;;;;;2.45;2.13;;;;;;;19.49;72.66;102378.25;5115528;28;20066;-87
2022/07/11 09:38:07;;;;;;;2.35;2.10;;;;;;;19.54;72.31;102376.34;5114779;28;20122;-84
2022/07/11 09:40:32;;;;;;;3.05;2.53;;;;;;;19.51;71.98;102373.81;5115335;28;20066;-85
2022/07/11 09:42:59;;;;;;;2.58;2.38;;;;;;;19.49;72.14;102377.38;5112206;28;20030;-84
2022/07/11 09:45:25;;;;;;;;;;;;;;;19.44;72.02;102380.16;5115613;28;20048;-84
2022/07/11 09:47:59;;;;;;;3.47;2.60;;;;;;;19.47;72.40;102369.53;5114493;28;19965;-86
2022/07/11 09:50:29;;;;;;;3.25;2.70;;;;;;;19.60;72.39;102373.53;5114093;28;20114;-85
2022/07/11 09:52:58;;;;;;;4.68;2.60;;;;;;;19.78;71.78;102373.91;5110225;28;20020;-87
2022/07/11 09:55:26;;;;;;;3.72;2.80;;;;;;;19.91;71.75;102369.16;5094806;28;20446;-87
2022/07/11 09:57:51;;;;;;;2.40;2.20;;;;;;;20.04;71.73;102374.94;5093687;28;20028;-86
2022/07/11 10:00:17;;;;;;;2.27;2.07;;;;;;;20.15;70.91;102374.59;5094357;28;20498;-86
2022/07/11 10:02:42;;;;;;;2.43;2.23;;;;;;;20.20;70.55;102375.31;5094659;28;20024;-86
2022/07/11 10:05:08;;;;;;;2.80;2.37;;;;;;;20.27;70.47;102370.69;5093432;28;20472;-86
2022/07/11 10:07:33;;;;;;;4.15;2.90;;;;;;;20.32;69.68;102371.41;5094301;28;20032;-86
2022/07/11 10:10:00;;;;;;;2.60;2.40;;;;;;;20.31;70.64;102372.31;5094162;28;20080;-86
2022/07/11 10:12:27;;;;;;;4.20;2.90;;;;;;;20.38;69.04;102381.75;5108312;28;20420;-86
2022/07/11 10:14:54;;;;;;;3.35;2.65;;;;;;;20.39;68.50;102374.72;5114363;28;20119;-86
2022/07/11 10:17:42;;;;;;;3.65;2.70;;;;;;;20.39;69.77;102372.94;5108430;28;20028;-86
2022/07/11 10:20:35;;;;;;;5.32;2.88;;;;;;;20.38;67.20;102379.09;5093357;28;20035;-86
2022/07/11 10:23:06;;;;;;;3.63;2.70;;;;;;;20.25;69.21;102380.44;5094027;28;20053;-86
2022/07/11 10:25:49;;;;;;;2.78;2.40;;;;;;;20.27;69.35;102375.94;5093452;28;20112;-86
2022/07/11 10:28:36;;;;;;;3.58;2.53;;;;;;;20.29;68.96;102375.00;5093860;28;20024;-85
2022/07/11 10:31:01;;;;;;;2.63;2.42;;;;;;;20.30;69.45;102382.00;5092526;28;20048;-84
2022/07/11 10:33:30;;;;;;;3.10;1.90;;;;;;;20.30;69.35;102386.41;5092934;28;20141;-85
2022/07/11 10:35:56;;;;;;;3.90;3.08;;;;;;;20.11;67.42;102389.63;5093283;28;20484;-84
2022/07/11 10:38:23;;;;;;;3.03;2.70;;;;;;;20.11;68.86;102380.84;5093533;28;20020;-85
2022/07/11 10:40:59;;;;;;;2.83;2.50;;;;;;;20.15;68.41;102391.25;5092895;28;20383;-84
2022/07/11 10:43:30;;;;;;;4.00;2.70;;;;;;;20.14;68.30;102386.91;5113521;28;20499;-84
2022/07/11 10:46:00;;;;;;;2.53;2.33;;;;;;;20.10;68.80;102390.53;5112817;28;20104;-84
2022/07/11 10:48:26;;;;;;;4.43;2.90;;;;;;;20.04;68.71;102388.13;5114017;28;20019;-85
2022/07/11 10:51:19;;;;;;;4.38;2.90;;;;;;;19.92;68.68;102389.31;5112049;28;20040;-85
2022/07/11 10:53:48;;;;;;;3.17;2.60;;;;;;;19.80;69.03;102395.81;5092748;28;20073;-85
2022/07/11 10:56:26;;;;;;;2.50;2.30;;;;;;;19.79;69.16;102393.19;5093149;28;20030;-85
2022/07/11 10:59:11;;;;;;;4.72;2.72;;;;;;;19.80;69.13;102394.94;5092881;28;20035;-84
2022/07/11 11:02:01;;;;;;;3.50;2.47;;;;;;;19.78;69.16;102394.97;5091939;28;20100;-85
2022/07/11 11:04:46;;;;;;;2.90;2.70;;;;;;;19.77;69.49;102393.25;5109692;28;20023;-84
2022/07/11 11:07:31;;;;;;;2.50;2.30;;;;;;;19.81;69.56;102391.38;5112571;28;20039;-85
2022/07/11 11:09:57;;;;;;;1.93;1.80;;;;;;;19.88;69.61;102399.09;5113025;28;20027;-85
2022/07/11 11:13:00;;;;;;;2.03;1.83;;;;;;;20.01;69.78;102394.31;5113470;28;20471;-85
2022/07/11 11:15:32;;;;;;;2.03;1.88;;;;;;;20.14;69.17;102402.72;5105273;28;20036;-84
2022/07/11 11:17:57;;;;;;;1.88;1.77;;;;;;;20.24;69.50;102402.44;5092955;28;20024;-84
2022/07/11 11:20:32;;;;;;;1.73;1.63;;;;;;;20.41;69.31;102394.00;5092888;28;20085;-84
2022/07/11 11:23:19;;;;;;;1.63;1.52;;;;;;;20.63;68.31;102396.78;5091750;28;20103;-84
2022/07/11 11:25:49;;;;;;;1.70;1.60;;;;;;;20.76;67.82;102387.56;5092849;28;20043;-85
2022/07/11 11:28:22;;;;;;;3.17;1.92;;;;;;;20.88;65.94;102401.25;5102257;28;20028;-84
2022/07/11 11:30:55;;;;;;;1.90;1.80;;;;;;;20.98;67.93;102390.34;5112676;28;20054;-84
2022/07/11 11:33:20;;;;;;;1.80;1.70;;;;;;;21.21;66.83;102391.31;5113381;28;20096;-85
2022/07/11 11:36:04;;;;;;;1.77;1.67;;;;;;;21.41;65.92;102398.50;5112219;28;20028;-85